Time;durP1;ratioP1;P1;durP2;ratioP2;P2;SDS_P1;SDS_P2;PMS_P1;PMS_P2;Temp;Humidity;BMP_temperature;BMP_pressure;BME280_temperature;BME280_humidity;BME280_pressure;Samples;Min_cycle;Max_cycle;Signal;HPM_P1;HPM_P2
2022/07/04 00:04:29;;;;;;;4.53;2.40;;;;;;;;;;10487096;28;20095;-75
2022/07/04 00:09:32;;;;;;;4.13;2.40;;;;;;;;;;10494608;28;20041;-77
2022/07/04 00:14:38;;;;;;;3.33;2.10;;;;;;;;;;10499378;28;20055;-75
2022/07/04 00:19:42;;;;;;;4.68;2.33;;;;;;;;;;10479929;28;20040;-76
2022/07/04 00:24:45;;;;;;;2.40;2.05;;;;;;;;;;10476846;28;20075;-76
2022/07/04 00:29:50;;;;;;;4.53;2.30;;;;;;;;;;10473787;28;20040;-76
2022/07/04 00:34:53;;;;;;;3.72;1.80;;;;;;;;;;10470761;28;20032;-76
2022/07/04 00:39:56;;;;;;;2.42;2.00;;;;;;;;;;10495341;28;20651;-74
2022/07/04 00:45:00;;;;;;;3.20;2.15;;;;;;;;;;10479129;28;20382;-75
2022/07/04 00:50:03;;;;;;;2.88;2.10;;;;;;;;;;10493438;28;20045;-75
2022/07/04 00:55:06;;;;;;;3.42;2.40;;;;;;;;;;10492581;28;20124;-75
2022/07/04 01:00:10;;;;;;;5.75;2.60;;;;;;;;;;10467242;28;20109;-75
2022/07/04 01:05:19;;;;;;;3.22;2.10;;;;;;;;;;10477628;28;20048;-75
2022/07/04 01:10:22;;;;;;;3.13;2.05;;;;;;;;;;10491900;28;20528;-76
2022/07/04 01:15:37;;;;;;;4.43;2.05;;;;;;;;;;10494844;28;20416;-75
2022/07/04 01:20:46;;;;;;;4.53;2.13;;;;;;;;;;10470688;28;20048;-75
2022/07/04 01:25:57;;;;;;;2.85;2.13;;;;;;;;;;10470467;28;20452;-74
2022/07/04 01:31:10;;;;;;;4.20;2.50;;;;;;;;;;10473009;28;20041;-76
2022/07/04 01:36:13;;;;;;;;;;;;;;;;;;10475944;28;20122;-75
2022/07/04 01:41:37;;;;;;;2.55;1.98;;;;;;;;;;10490852;28;19928;-75
2022/07/04 01:46:40;;;;;;;3.50;2.35;;;;;;;;;;10493348;28;20485;-75
2022/07/04 01:51:46;;;;;;;3.85;2.30;;;;;;;;;;10483908;28;20059;-76
2022/07/04 01:56:51;;;;;;;3.17;2.03;;;;;;;;;;10473118;28;20071;-75
2022/07/04 02:01:53;;;;;;;3.63;2.35;;;;;;;;;;10483843;28;20044;-76
2022/07/04 02:06:56;;;;;;;3.00;2.13;;;;;;;;;;10466555;28;20074;-75
2022/07/04 02:17:22;;;;;;;6.27;2.30;;;;;;;;;;10488179;28;20044;-76
2022/07/04 02:22:26;;;;;;;3.33;2.30;;;;;;;;;;10470188;28;20301;-76
2022/07/04 02:27:30;;;;;;;3.80;2.50;;;;;;;;;;10472238;28;20072;-74
2022/07/04 02:32:33;;;;;;;5.72;2.33;;;;;;;;;;10485218;28;20040;-75
2022/07/04 02:37:36;;;;;;;6.28;2.50;;;;;;;;;;10474225;28;20131;-76
2022/07/04 02:42:41;;;;;;;2.80;2.10;;;;;;;;;;10468205;28;20135;-75
2022/07/04 02:47:44;;;;;;;6.15;2.13;;;;;;;;;;10488966;28;20056;-74
2022/07/04 02:52:47;;;;;;;3.53;2.35;;;;;;;;;;10485340;28;20457;-75
2022/07/04 02:57:51;;;;;;;2.67;2.10;;;;;;;;;;10472593;28;20044;-74
2022/07/04 03:02:54;;;;;;;4.47;2.20;;;;;;;;;;10495576;28;20043;-75
2022/07/04 03:07:57;;;;;;;5.85;2.55;;;;;;;;;;10473249;28;20163;-74
2022/07/04 03:13:00;;;;;;;;;;;;;;;;;;10486525;28;20123;-75
2022/07/04 03:18:09;;;;;;;3.38;2.20;;;;;;;;;;10486381;28;19960;-76
2022/07/04 03:23:12;;;;;;;2.63;2.10;;;;;;;;;;10481852;28;20033;-76
2022/07/04 03:28:15;;;;;;;4.28;2.67;;;;;;;;;;10489399;28;20548;-75
2022/07/04 03:33:19;;;;;;;4.07;2.70;;;;;;;;;;10468825;28;20068;-76
2022/07/04 03:38:22;;;;;;;3.67;2.22;;;;;;;;;;10489714;28;20461;-76
2022/07/04 03:43:24;;;;;;;5.68;2.88;;;;;;;;;;10488710;28;20028;-77
2022/07/04 03:48:28;;;;;;;6.03;2.80;;;;;;;;;;10488823;28;20130;-76
2022/07/04 03:53:31;;;;;;;3.88;2.63;;;;;;;;;;10478119;28;20298;-80
2022/07/04 03:58:34;;;;;;;8.85;3.00;;;;;;;;;;10490518;28;20031;-75
2022/07/04 04:08:58;;;;;;;4.95;2.90;;;;;;;;;;10470970;28;20075;-75
2022/07/04 04:14:01;;;;;;;5.75;3.13;;;;;;;;;;10472386;28;20561;-74
2022/07/04 04:19:05;;;;;;;4.50;2.67;;;;;;;;;;10488417;28;20025;-74
2022/07/04 04:24:08;;;;;;;3.42;2.53;;;;;;;;;;10476738;28;20086;-74
2022/07/04 04:29:11;;;;;;;4.63;2.63;;;;;;;;;;10474054;28;20753;-75
2022/07/04 04:34:15;;;;;;;5.50;2.63;;;;;;;;;;10496825;28;20035;-76
2022/07/04 04:39:17;;;;;;;5.22;2.80;;;;;;;;;;10478960;28;20122;-74
2022/07/04 04:44:20;;;;;;;7.10;2.60;;;;;;;;;;10495568;28;20416;-76
2022/07/04 04:49:24;;;;;;;3.13;2.55;;;;;;;;;;10489479;28;20045;-77
2022/07/04 04:54:27;;;;;;;8.63;2.92;;;;;;;;;;10493643;28;20036;-76
2022/07/04 04:59:30;;;;;;;6.35;2.80;;;;;;;;;;10476596;28;20897;-76
2022/07/04 05:04:32;;;;;;;;;;;;;;;;;;10492290;28;20028;-75
2022/07/04 05:09:36;;;;;;;7.25;2.92;;;;;;;;;;10498011;28;19969;-76
2022/07/04 05:14:39;;;;;;;5.68;2.63;;;;;;;;;;10475180;28;20143;-75
2022/07/04 05:19:43;;;;;;;4.00;2.60;;;;;;;;;;10495847;28;20082;-75
2022/07/04 05:24:47;;;;;;;8.63;2.80;;;;;;;;;;10495621;28;20140;-75
2022/07/04 05:29:50;;;;;;;7.05;3.42;;;;;;;;;;10477995;28;20169;-75
2022/07/04 05:34:58;;;;;;;3.30;2.60;;;;;;;;;;10494734;28;20044;-76
2022/07/04 05:40:02;;;;;;;4.53;1.80;;;;;;;;;;10486555;28;20090;-78
2022/07/04 05:45:06;;;;;;;7.88;2.53;;;;;;;;;;10471970;28;20195;-77
2022/07/04 05:50:09;;;;;;;3.03;2.33;;;;;;;;;;10477299;28;20071;-71
2022/07/04 05:55:13;;;;;;;4.45;2.30;;;;;;;;;;10468716;28;20097;-72
2022/07/04 06:00:17;;;;;;;2.97;2.40;;;;;;;;;;10481943;28;20041;-74
2022/07/04 06:05:19;;;;;;;3.35;2.20;;;;;;;;;;10471247;28;20127;-72
2022/07/04 06:10:24;;;;;;;4.88;2.28;;;;;;;;;;10475856;28;20442;-70
2022/07/04 06:15:27;;;;;;;4.13;2.03;;;;;;;;;;10474170;28;20101;-73
2022/07/04 06:20:30;;;;;;;2.00;1.67;;;;;;;;;;10467446;28;20065;-74
2022/07/04 06:25:34;;;;;;;3.45;2.00;;;;;;;;;;10491186;28;20528;-73
2022/07/04 06:30:37;;;;;;;3.65;2.30;;;;;;;;;;10473015;28;20537;-73
2022/07/04 06:35:48;;;;;;;4.30;2.15;;;;;;;;;;10488560;28;20123;-73
2022/07/04 06:40:54;;;;;;;3.80;2.80;;;;;;;;;;10477346;28;20191;-73
2022/07/04 06:45:57;;;;;;;2.53;1.77;;;;;;;;;;10466648;28;20141;-73
2022/07/04 06:51:00;;;;;;;3.22;1.88;;;;;;;;;;10476033;28;20121;-72
2022/07/04 06:56:04;;;;;;;3.05;2.00;;;;;;;;;;10489062;28;20043;-72
2022/07/04 07:01:07;;;;;;;2.35;1.85;;;;;;;;;;10489629;28;20154;-71
2022/07/04 07:06:10;;;;;;;4.72;2.00;;;;;;;;;;10477962;28;20036;-73
2022/07/04 07:11:16;;;;;;;2.70;1.60;;;;;;;;;;10491043;28;20044;-73
2022/07/04 07:16:19;;;;;;;3.38;1.70;;;;;;;;;;10492950;28;20120;-73
2022/07/04 07:21:22;;;;;;;2.78;2.10;;;;;;;;;;10482592;28;20504;-71
2022/07/04 07:26:26;;;;;;;3.70;1.85;;;;;;;;;;10473585;28;20063;-73
2022/07/04 07:31:29;;;;;;;5.07;2.40;;;;;;;;;;10477250;28;20128;-73
2022/07/04 07:36:32;;;;;;;3.78;2.35;;;;;;;;;;10481837;28;20171;-73
2022/07/04 07:41:36;;;;;;;2.38;1.80;;;;;;;;;;10486155;28;20039;-74
2022/07/04 07:46:39;;;;;;;2.35;1.70;;;;;;;;;;10471456;28;20127;-74
2022/07/04 07:51:41;;;;;;;4.50;1.73;;;;;;;;;;10489554;28;20036;-73
2022/07/04 07:56:46;;;;;;;6.10;1.98;;;;;;;;;;10487507;28;20033;-72
2022/07/04 08:01:48;;;;;;;1.88;1.20;;;;;;;;;;10484152;28;20459;-71
2022/07/04 08:06:51;;;;;;;5.88;2.05;;;;;;;;;;10488348;28;20033;-73
2022/07/04 08:12:15;;;;;;;3.97;2.35;;;;;;;;;;10490120;28;20178;-73
2022/07/04 08:17:18;;;;;;;2.45;1.40;;;;;;;;;;10490218;28;20091;-73
2022/07/04 08:22:21;;;;;;;5.18;2.10;;;;;;;;;;10494353;28;20042;-73
2022/07/04 08:27:25;;;;;;;3.30;2.03;;;;;;;;;;10492910;28;20059;-72
2022/07/04 08:32:34;;;;;;;2.28;1.85;;;;;;;;;;10494077;28;20135;-72
2022/07/04 08:37:37;;;;;;;;;;;;;;;;;;10498559;28;20531;-72
2022/07/04 08:42:41;;;;;;;3.20;1.70;;;;;;;;;;10489580;28;19931;-73
2022/07/04 08:47:45;;;;;;;4.00;2.00;;;;;;;;;;10491518;28;20404;-73
2022/07/04 08:52:48;;;;;;;2.28;1.65;;;;;;;;;;10491999;28;20123;-72
2022/07/04 09:03:13;;;;;;;2.35;1.63;;;;;;;;;;10475156;28;20450;-73
2022/07/04 09:08:16;;;;;;;5.10;1.80;;;;;;;;;;10468621;28;20067;-72
2022/07/04 09:13:20;;;;;;;3.17;1.73;;;;;;;;;;10473675;28;20059;-70
2022/07/04 09:18:24;;;;;;;4.20;1.73;;;;;;;;;;10485862;28;20055;-71
2022/07/04 09:23:28;;;;;;;4.50;1.45;;;;;;;;;;10474559;28;20087;-73
2022/07/04 09:28:32;;;;;;;2.75;1.95;;;;;;;;;;10472692;28;20052;-72
2022/07/04 09:33:52;;;;;;;3.67;1.63;;;;;;;;;;10470910;28;20090;-72
2022/07/04 09:39:12;;;;;;;2.35;1.60;;;;;;;;;;10489155;28;20448;-72
2022/07/04 09:44:17;;;;;;;2.13;1.70;;;;;;;;;;10491395;28;20480;-72
2022/07/04 09:49:20;;;;;;;1.98;1.80;;;;;;;;;;10464423;28;20453;-72
2022/07/04 09:54:27;;;;;;;2.80;1.60;;;;;;;;;;10487479;28;20032;-72
2022/07/04 09:59:32;;;;;;;1.73;1.63;;;;;;;;;;10473681;28;20049;-71
2022/07/04 10:04:42;;;;;;;4.63;2.35;;;;;;;;;;10486472;28;20147;-72
2022/07/04 10:09:45;;;;;;;3.75;2.10;;;;;;;;;;10486291;28;20125;-72
2022/07/04 10:14:49;;;;;;;4.50;1.70;;;;;;;;;;10473868;28;20068;-71
2022/07/04 10:19:52;;;;;;;3.05;1.85;;;;;;;;;;10483255;28;20504;-72
2022/07/04 10:24:55;;;;;;;3.35;1.65;;;;;;;;;;10471087;28;20115;-72
2022/07/04 10:30:00;;;;;;;4.93;1.80;;;;;;;;;;10472874;28;20071;-71
2022/07/04 10:35:03;;;;;;;3.65;1.60;;;;;;;;;;10472416;28;20032;-71
2022/07/04 10:40:07;;;;;;;2.38;1.60;;;;;;;;;;10487353;28;20063;-71
2022/07/04 10:45:31;;;;;;;2.38;1.58;;;;;;;;;;10465723;28;20839;-71
2022/07/04 10:50:34;;;;;;;1.98;1.60;;;;;;;;;;10486122;28;20043;-71
2022/07/04 10:55:37;;;;;;;5.22;2.47;;;;;;;;;;10492104;28;20109;-72
2022/07/04 11:01:03;;;;;;;4.53;1.50;;;;;;;;;;10472003;28;20052;-72
2022/07/04 11:06:31;;;;;;;2.30;1.50;;;;;;;;;;10477487;28;20094;-72
2022/07/04 11:11:49;;;;;;;4.68;2.05;;;;;;;;;;10490473;28;20496;-72
2022/07/04 11:16:54;;;;;;;1.30;1.20;;;;;;;;;;10490804;28;20024;-72
2022/07/04 11:21:57;;;;;;;3.35;1.88;;;;;;;;;;10493586;28;20068;-72
2022/07/04 11:27:00;;;;;;;2.05;1.85;;;;;;;;;;10479225;28;20094;-71
2022/07/04 11:32:07;;;;;;;2.08;1.60;;;;;;;;;;10487869;28;20086;-71
2022/07/04 11:37:10;;;;;;;2.10;1.50;;;;;;;;;;10468914;28;20097;-72
2022/07/04 11:47:36;;;;;;;3.90;1.73;;;;;;;;;;10499115;28;20106;-71
2022/07/04 11:52:44;;;;;;;2.80;1.58;;;;;;;;;;10478714;28;20352;-72
2022/07/04 11:58:06;;;;;;;2.35;1.85;;;;;;;;;;10474810;28;20552;-73
2022/07/04 12:03:17;;;;;;;2.08;1.65;;;;;;;;;;10499284;28;20119;-73
2022/07/04 12:08:19;;;;;;;1.90;1.52;;;;;;;;;;10498040;28;20036;-71
2022/07/04 12:13:30;;;;;;;3.15;1.80;;;;;;;;;;10499910;28;20864;-72
2022/07/04 12:18:34;;;;;;;2.60;1.92;;;;;;;;;;10493842;28;20048;-73
2022/07/04 12:23:39;;;;;;;3.00;1.92;;;;;;;;;;10479354;28;20149;-72
2022/07/04 12:29:01;;;;;;;2.10;1.88;;;;;;;;;;10498996;28;20032;-72
2022/07/04 12:34:14;;;;;;;3.05;1.88;;;;;;;;;;10476004;28;20098;-71
2022/07/04 12:39:17;;;;;;;;;;;;;;;;;;10501946;28;20040;-71
2022/07/04 12:44:22;;;;;;;2.10;1.90;;;;;;;;;;10470680;28;20027;-71
2022/07/04 12:49:27;;;;;;;4.43;1.83;;;;;;;;;;10479290;28;20051;-71
2022/07/04 12:54:30;;;;;;;2.10;1.65;;;;;;;;;;10475283;28;20048;-72
2022/07/04 12:59:33;;;;;;;3.60;1.90;;;;;;;;;;10503622;28;20040;-78
2022/07/04 13:04:37;;;;;;;3.85;2.00;;;;;;;;;;10503947;28;20045;-73
2022/07/04 13:09:41;;;;;;;2.75;2.13;;;;;;;;;;10496155;28;20560;-80
2022/07/04 13:14:44;;;;;;;2.72;1.73;;;;;;;;;;10514613;28;20408;-75
2022/07/04 13:19:48;;;;;;;3.13;1.85;;;;;;;;;;10493064;28;20028;-77
2022/07/04 13:24:51;;;;;;;1.95;1.85;;;;;;;;;;10505750;28;20060;-80
2022/07/04 13:29:53;;;;;;;3.38;2.08;;;;;;;;;;10495127;28;20040;-80
2022/07/04 13:34:57;;;;;;;3.53;1.80;;;;;;;;;;10514560;28;20039;-81
2022/07/04 13:40:00;;;;;;;4.68;2.08;;;;;;;;;;10486733;28;20040;-80
2022/07/04 13:45:03;;;;;;;2.67;1.70;;;;;;;;;;10488429;28;20033;-78
2022/07/04 13:50:08;;;;;;;2.25;1.80;;;;;;;;;;10497018;28;20029;-79
2022/07/04 13:55:13;;;;;;;3.40;2.00;;;;;;;;;;10482027;28;20045;-78
2022/07/04 14:00:16;;;;;;;3.83;2.28;;;;;;;;;;10489106;28;20135;-79
2022/07/04 14:05:21;;;;;;;4.40;1.95;;;;;;;;;;10483227;28;20045;-76
2022/07/04 14:10:24;;;;;;;3.05;2.05;;;;;;;;;;10502163;28;20024;-76
2022/07/04 14:15:27;;;;;;;4.28;1.80;;;;;;;;;;10480422;28;20048;-77
2022/07/04 14:20:32;;;;;;;3.47;2.20;;;;;;;;;;10486863;28;20692;-76
2022/07/04 14:25:35;;;;;;;3.03;1.75;;;;;;;;;;10507393;28;20531;-79
2022/07/04 14:30:37;;;;;;;3.72;1.83;;;;;;;;;;10489866;28;20110;-79
2022/07/04 14:35:41;;;;;;;9.05;5.03;;;;;;;;;;10517381;28;20098;-80
2022/07/04 14:40:46;;;;;;;2.80;1.70;;;;;;;;;;10484600;28;20060;-80
2022/07/04 14:45:49;;;;;;;3.50;2.00;;;;;;;;;;10484491;28;20040;-80
2022/07/04 14:50:53;;;;;;;5.05;2.25;;;;;;;;;;10492252;28;20040;-80
2022/07/04 14:55:56;;;;;;;5.03;3.17;;;;;;;;;;10481699;28;20044;-81
2022/07/04 15:00:59;;;;;;;4.95;1.95;;;;;;;;;;10490786;28;20061;-79
2022/07/04 15:06:03;;;;;;;6.03;2.28;;;;;;;;;;10509866;28;20052;-81
2022/07/04 15:11:07;;;;;;;5.22;2.05;;;;;;;;;;10507125;28;20146;-79
2022/07/04 15:16:15;;;;;;;2.45;1.98;;;;;;;;;;10508266;28;20040;-80
2022/07/04 15:26:49;;;;;;;2.42;1.90;;;;;;;;;;10482252;28;20036;-74
2022/07/04 15:31:52;;;;;;;3.80;2.53;;;;;;;;;;10493700;28;20060;-80
2022/07/04 15:36:56;;;;;;;4.00;1.83;;;;;;;;;;10487205;28;20029;-79
2022/07/04 15:41:59;;;;;;;2.63;1.95;;;;;;;;;;10481902;28;20040;-74
2022/07/04 15:47:10;;;;;;;5.57;2.60;;;;;;;;;;10489252;28;20043;-74
2022/07/04 15:52:15;;;;;;;5.93;2.60;;;;;;;;;;10501257;28;20040;-79
2022/07/04 15:57:18;;;;;;;4.38;2.03;;;;;;;;;;10492752;28;20094;-79
2022/07/04 16:02:20;;;;;;;6.15;3.00;;;;;;;;;;10472835;28;20109;-80
2022/07/04 16:07:24;;;;;;;6.45;2.50;;;;;;;;;;10499574;28;20050;-78
2022/07/04 16:12:27;;;;;;;4.20;3.10;;;;;;;;;;10495934;28;20043;-80
2022/07/04 16:17:30;;;;;;;3.20;2.20;;;;;;;;;;10489169;28;20496;-80
2022/07/04 16:22:36;;;;;;;4.85;2.30;;;;;;;;;;10500388;28;20115;-81
2022/07/04 16:27:39;;;;;;;5.40;2.75;;;;;;;;;;10489487;28;20077;-81
2022/07/04 16:32:43;;;;;;;5.88;2.40;;;;;;;;;;10490773;28;20049;-80
2022/07/04 16:37:48;;;;;;;4.93;2.90;;;;;;;;;;10509935;28;20066;-81
2022/07/04 16:42:50;;;;;;;3.50;1.98;;;;;;;;;;10532323;28;20025;-80
2022/07/04 16:47:53;;;;;;;3.45;2.10;;;;;;;;;;10554442;28;20067;-80
2022/07/04 16:52:57;;;;;;;2.85;1.80;;;;;;;;;;10485992;28;20051;-81
2022/07/04 16:58:00;;;;;;;3.03;2.25;;;;;;;;;;10477430;28;20053;-74
2022/07/04 17:03:04;;;;;;;3.92;2.20;;;;;;;;;;10498233;28;20138;-74
2022/07/04 17:08:09;;;;;;;7.22;2.78;;;;;;;;;;10478680;28;20099;-73
2022/07/04 17:13:12;;;;;;;3.78;2.50;;;;;;;;;;10488399;28;20041;-73
2022/07/04 17:18:14;;;;;;;6.00;2.80;;;;;;;;;;10473713;28;20044;-74
2022/07/04 17:23:20;;;;;;;6.57;2.80;;;;;;;;;;10489273;28;20489;-73
2022/07/04 17:28:22;;;;;;;9.55;5.45;;;;;;;;;;10490638;28;20058;-80
2022/07/04 17:33:25;;;;;;;5.78;2.90;;;;;;;;;;10497412;28;20042;-80
2022/07/04 17:38:28;;;;;;;;;;;;;;;;;;10488286;28;20386;-83
2022/07/04 17:43:32;;;;;;;10.10;4.15;;;;;;;;;;10480418;28;19940;-81
2022/07/04 17:48:34;;;;;;;7.32;3.72;;;;;;;;;;10508718;28;20036;-80
2022/07/04 17:53:37;;;;;;;5.32;2.75;;;;;;;;;;10486763;28;20128;-82
2022/07/04 17:58:42;;;;;;;;;;;;;;;;;;10502782;28;20111;-80
2022/07/04 18:03:46;;;;;;;4.93;2.67;;;;;;;;;;10496049;28;19924;-80
2022/07/04 18:08:49;;;;;;;4.95;2.58;;;;;;;;;;10494254;28;20032;-81
2022/07/04 18:13:52;;;;;;;7.18;2.85;;;;;;;;;;10496509;28;20044;-80
2022/07/04 18:18:57;;;;;;;4.18;2.53;;;;;;;;;;10507269;28;20028;-80
2022/07/04 18:24:00;;;;;;;5.13;2.80;;;;;;;;;;10497700;28;20082;-80
2022/07/04 18:29:04;;;;;;;5.28;2.90;;;;;;;;;;10510448;28;20064;-81
2022/07/04 18:34:09;;;;;;;4.97;2.78;;;;;;;;;;10506966;28;20086;-81
2022/07/04 18:39:12;;;;;;;9.52;4.68;;;;;;;;;;10503594;28;20131;-80
2022/07/04 18:44:15;;;;;;;5.55;2.63;;;;;;;;;;10480741;28;20104;-80
2022/07/04 18:49:19;;;;;;;6.00;2.95;;;;;;;;;;10501132;28;20037;-81
2022/07/04 18:54:23;;;;;;;6.07;3.25;;;;;;;;;;10480125;28;20033;-79
2022/07/04 18:59:26;;;;;;;6.53;4.18;;;;;;;;;;10477140;28;20043;-80
2022/07/04 19:04:31;;;;;;;6.20;2.70;;;;;;;;;;10475027;28;20036;-71
2022/07/04 19:09:34;;;;;;;4.57;3.25;;;;;;;;;;10489339;28;20033;-71
2022/07/04 19:14:37;;;;;;;2.45;1.85;;;;;;;;;;10480174;28;20663;-75
2022/07/04 19:19:42;;;;;;;5.78;2.60;;;;;;;;;;10471891;28;20182;-76
2022/07/04 19:24:45;;;;;;;7.35;2.75;;;;;;;;;;10486481;28;20538;-75
2022/07/04 19:29:48;;;;;;;6.22;2.13;;;;;;;;;;10473502;28;20033;-75
2022/07/04 19:34:52;;;;;;;4.45;1.70;;;;;;;;;;10480035;28;20044;-77
2022/07/04 19:39:55;;;;;;;10.25;3.00;;;;;;;;;;10484233;28;20056;-75
2022/07/04 19:44:58;;;;;;;4.13;1.93;;;;;;;;;;10488904;28;20068;-77
2022/07/04 19:50:03;;;;;;;7.95;2.83;;;;;;;;;;10499411;28;20028;-76
2022/07/04 19:55:07;;;;;;;7.13;2.75;;;;;;;;;;10474448;28;20139;-79
2022/07/04 20:00:11;;;;;;;4.22;2.17;;;;;;;;;;10473429;28;20040;-77
2022/07/04 20:05:15;;;;;;;1.67;1.35;;;;;;;;;;10499677;28;20041;-78
2022/07/04 20:10:18;;;;;;;5.70;2.67;;;;;;;;;;10506840;28;20093;-79
2022/07/04 20:15:21;;;;;;;7.65;2.70;;;;;;;;;;10480243;28;20405;-81
2022/07/04 20:20:25;;;;;;;5.70;3.33;;;;;;;;;;10505574;28;20033;-79
2022/07/04 20:25:27;;;;;;;7.43;3.10;;;;;;;;;;10479487;28;20040;-77
2022/07/04 20:30:30;;;;;;;6.47;3.37;;;;;;;;;;10470572;28;20049;-77
2022/07/04 20:35:34;;;;;;;3.30;2.00;;;;;;;;;;10488179;28;20063;-77
2022/07/04 20:40:38;;;;;;;8.48;4.18;;;;;;;;;;10480995;28;20293;-74
2022/07/04 20:45:41;;;;;;;7.90;4.30;;;;;;;;;;10481567;28;20071;-77
2022/07/04 20:50:46;;;;;;;1.95;1.15;;;;;;;;;;10488246;28;20415;-75
2022/07/04 20:55:49;;;;;;;4.97;2.17;;;;;;;;;;10477427;28;20063;-76
2022/07/04 21:00:52;;;;;;;;;;;;;;;;;;10493793;28;20476;-76
2022/07/04 21:05:56;;;;;;;14.57;4.97;;;;;;;;;;10481049;28;19956;-75
2022/07/04 21:11:00;;;;;;;9.75;3.92;;;;;;;;;;10477605;28;20181;-74
2022/07/04 21:16:07;;;;;;;8.87;3.93;;;;;;;;;;10497975;28;20043;-74
2022/07/04 21:21:12;;;;;;;7.72;3.78;;;;;;;;;;10493685;28;20568;-77
2022/07/04 21:26:14;;;;;;;3.30;1.95;;;;;;;;;;10503023;28;20841;-74
2022/07/04 21:31:17;;;;;;;;;;;;;;;;;;10477014;28;20632;-76
2022/07/04 21:36:22;;;;;;;3.08;2.17;;;;;;;;;;10498226;28;19928;-74
2022/07/04 21:41:25;;;;;;;4.85;2.17;;;;;;;;;;10490256;28;20476;-76
2022/07/04 21:46:28;;;;;;;5.13;2.67;;;;;;;;;;10483572;28;20097;-76
2022/07/04 21:51:32;;;;;;;5.30;2.00;;;;;;;;;;10491909;28;20048;-75
2022/07/04 21:56:35;;;;;;;4.43;2.63;;;;;;;;;;10485403;28;20142;-77
2022/07/04 22:01:38;;;;;;;6.37;2.60;;;;;;;;;;10487541;28;20084;-76
2022/07/04 22:06:43;;;;;;;6.65;2.85;;;;;;;;;;10497943;28;20040;-77
2022/07/04 22:11:45;;;;;;;10.18;2.88;;;;;;;;;;10493856;28;20036;-77
2022/07/04 22:16:49;;;;;;;;;;;;;;;;;;10489195;28;20531;-76
2022/07/04 22:21:53;;;;;;;5.65;2.75;;;;;;;;;;10474488;28;19927;-77
2022/07/04 22:26:55;;;;;;;7.63;3.25;;;;;;;;;;10489837;28;20028;-76
2022/07/04 22:32:02;;;;;;;4.43;2.72;;;;;;;;;;10495898;28;20040;-77
2022/07/04 22:37:06;;;;;;;;;;;;;;;;;;10488090;28;20124;-75
2022/07/04 22:42:10;;;;;;;6.93;3.03;;;;;;;;;;10487840;28;20337;-76
2022/07/04 22:47:12;;;;;;;5.10;2.50;;;;;;;;;;10493967;28;20046;-75
2022/07/04 22:52:15;;;;;;;5.43;3.37;;;;;;;;;;10474380;28;20121;-75
2022/07/04 22:57:20;;;;;;;5.43;2.92;;;;;;;;;;10470241;28;20059;-75
2022/07/04 23:02:24;;;;;;;5.40;3.10;;;;;;;;;;10491946;28;20043;-75
2022/07/04 23:07:27;;;;;;;;;;;;;;;;;;10468588;28;20048;-74
2022/07/04 23:12:31;;;;;;;7.30;3.75;;;;;;;;;;10465753;28;19959;-75
2022/07/04 23:17:33;;;;;;;8.18;3.45;;;;;;;;;;10493967;28;20131;-75
2022/07/04 23:22:36;;;;;;;9.18;3.92;;;;;;;;;;10476893;28;20043;-74
2022/07/04 23:27:41;;;;;;;6.93;3.63;;;;;;;;;;10493266;28;20591;-75
2022/07/04 23:32:43;;;;;;;6.72;3.08;;;;;;;;;;10494625;28;20055;-74
2022/07/04 23:37:46;;;;;;;6.25;3.50;;;;;;;;;;10487143;28;20135;-74
2022/07/04 23:42:51;;;;;;;8.00;3.10;;;;;;;;;;10475600;28;20068;-74
2022/07/04 23:47:53;;;;;;;6.25;2.50;;;;;;;;;;10501677;28;20036;-76
2022/07/04 23:52:56;;;;;;;3.23;1.30;;;;;;;;;;10477045;28;20127;-76
2022/07/04 23:58:00;;;;;;;6.97;2.80;;;;;;;;;;10484130;28;20056;-75
